createdAt,value
2023-01-26T00:02:02.990Z,38.50
2023-01-26T00:04:37.235Z,38.30
2023-01-26T00:07:05.713Z,37.73
2023-01-26T00:12:31.064Z,36.97
2023-01-26T00:15:00.691Z,38.03
2023-01-26T00:17:37.489Z,37.83
2023-01-26T00:20:07.644Z,38.07
2023-01-26T00:22:35.454Z,35.47
2023-01-26T00:25:05.342Z,30.60
2023-01-26T00:27:35.435Z,33.37
2023-01-26T00:30:05.398Z,31.83
2023-01-26T00:32:37.617Z,33.60
2023-01-26T00:35:07.783Z,35.10
2023-01-26T00:37:35.990Z,37.27
2023-01-26T00:40:09.531Z,35.80
2023-01-26T00:42:43.227Z,34.30
2023-01-26T00:45:19.681Z,34.77
2023-01-26T00:47:47.963Z,35.40
2023-01-26T00:50:27.968Z,33.00
2023-01-26T00:52:57.639Z,36.67
2023-01-26T00:55:32.313Z,34.50
2023-01-26T00:58:01.649Z,36.37
2023-01-26T01:00:31.376Z,35.77
2023-01-26T01:03:05.523Z,36.47
2023-01-26T01:05:39.490Z,33.00
2023-01-26T01:08:07.799Z,31.83
2023-01-26T01:10:40.956Z,31.13
2023-01-26T01:13:09.094Z,31.00
2023-01-26T01:15:43.005Z,28.10
2023-01-26T01:18:11.555Z,29.77
2023-01-26T01:20:43.665Z,28.53
2023-01-26T01:23:14.069Z,30.83
2023-01-26T01:25:43.665Z,28.40
2023-01-26T01:28:11.459Z,26.67
2023-01-26T01:30:47.081Z,26.30
2023-01-26T01:33:19.038Z,27.53
2023-01-26T01:36:00.027Z,22.60
2023-01-26T01:38:38.833Z,25.97
2023-01-26T01:41:08.149Z,25.97
2023-01-26T01:43:39.586Z,25.83
2023-01-26T01:46:17.003Z,23.80
2023-01-26T01:48:54.134Z,24.17
2023-01-26T01:51:32.245Z,22.30
2023-01-26T01:54:06.881Z,23.90
2023-01-26T01:56:38.289Z,21.93
2023-01-26T01:59:09.712Z,20.23
2023-01-26T02:01:38.682Z,22.13
2023-01-26T02:04:11.447Z,19.73
2023-01-26T02:06:51.221Z,17.07
2023-01-26T02:09:39.627Z,17.40
2023-01-26T02:12:18.785Z,14.07
2023-01-26T02:14:50.786Z,13.60
2023-01-26T02:17:24.172Z,15.87
2023-01-26T02:20:00.334Z,12.93
2023-01-26T02:22:45.384Z,13.03
2023-01-26T02:25:27.456Z,13.70
2023-01-26T02:28:26.688Z,13.23
2023-01-26T02:31:01.607Z,17.27
2023-01-26T02:33:34.979Z,14.17
2023-01-26T02:36:08.275Z,13.43
2023-01-26T02:38:50.181Z,12.90
2023-01-26T02:41:42.297Z,14.77
2023-01-26T02:44:15.846Z,14.10
2023-01-26T02:46:49.227Z,11.93
2023-01-26T02:49:39.030Z,13.50
2023-01-26T02:52:11.910Z,16.70
2023-01-26T02:55:01.413Z,11.70
2023-01-26T02:57:32.563Z,12.50
2023-01-26T03:00:02.377Z,11.97
2023-01-26T03:02:42.328Z,12.23
2023-01-26T03:05:11.412Z,12.63
2023-01-26T03:07:43.201Z,12.70
2023-01-26T03:10:12.284Z,13.13
2023-01-26T03:12:41.035Z,11.53
2023-01-26T03:15:31.753Z,13.73
2023-01-26T03:18:23.046Z,11.33
2023-01-26T03:21:09.232Z,12.00
2023-01-26T03:23:58.218Z,15.63
2023-01-26T03:26:47.538Z,12.50
2023-01-26T03:29:20.176Z,12.57
2023-01-26T03:31:55.466Z,14.73
2023-01-26T03:34:25.779Z,12.73
2023-01-26T03:36:54.935Z,13.50
2023-01-26T03:39:40.551Z,12.67
2023-01-26T03:42:27.300Z,11.70
2023-01-26T03:45:14.340Z,11.47
2023-01-26T03:48:03.833Z,11.33
2023-01-26T03:50:51.896Z,9.63
2023-01-26T03:53:46.824Z,9.23
2023-01-26T03:56:21.529Z,10.87
2023-01-26T03:58:57.667Z,9.03
2023-01-26T04:01:29.905Z,10.07
2023-01-26T04:04:21.215Z,8.90
2023-01-26T04:07:09.337Z,8.33
2023-01-26T04:09:41.168Z,7.50
2023-01-26T04:12:11.154Z,8.53
2023-01-26T04:14:58.313Z,8.40
2023-01-26T04:17:43.857Z,8.87
2023-01-26T04:20:40.974Z,8.00
2023-01-26T04:23:21.409Z,9.17
2023-01-26T04:25:54.177Z,11.73
2023-01-26T04:28:32.911Z,9.80
2023-01-26T04:31:03.116Z,8.77
2023-01-26T04:36:15.154Z,9.40
2023-01-26T04:38:45.580Z,10.13
2023-01-26T04:41:14.897Z,10.33
2023-01-26T04:43:46.026Z,9.33
2023-01-26T04:46:16.150Z,8.50
2023-01-26T04:48:44.467Z,7.57
2023-01-26T04:51:23.006Z,9.57
2023-01-26T04:53:53.937Z,10.33
2023-01-26T04:56:26.704Z,10.17
2023-01-26T04:58:57.167Z,7.30
2023-01-26T05:01:25.403Z,7.17
2023-01-26T05:03:54.862Z,9.20
2023-01-26T05:06:24.903Z,9.63
2023-01-26T05:08:57.769Z,9.50
2023-01-26T05:11:26.461Z,9.90
2023-01-26T05:13:58.172Z,9.53
2023-01-26T05:16:30.982Z,8.13
2023-01-26T05:19:00.597Z,12.93
2023-01-26T05:21:30.501Z,7.97
2023-01-26T05:23:59.500Z,8.60
2023-01-26T05:26:34.025Z,8.70
2023-01-26T05:29:03.580Z,9.87
2023-01-26T05:31:33.756Z,8.63
2023-01-26T05:34:01.924Z,8.93
2023-01-26T05:36:32.340Z,8.57
2023-01-26T05:39:09.488Z,10.57
2023-01-26T05:41:39.427Z,8.77
2023-01-26T05:44:08.505Z,7.10
2023-01-26T05:46:37.656Z,7.17
2023-01-26T05:49:05.489Z,8.67
2023-01-26T05:51:38.585Z,9.53
2023-01-26T05:54:11.286Z,6.97
2023-01-26T05:56:43.325Z,11.80
2023-01-26T05:59:12.223Z,7.40
2023-01-26T06:01:45.040Z,7.23
2023-01-26T06:04:13.377Z,7.53
2023-01-26T06:06:47.102Z,7.53
2023-01-26T06:09:16.833Z,6.93
2023-01-26T06:11:44.844Z,9.33
2023-01-26T06:14:19.140Z,10.17
2023-01-26T06:16:48.308Z,11.23
2023-01-26T06:19:17.891Z,11.07
2023-01-26T06:21:49.316Z,12.10
2023-01-26T06:24:21.814Z,11.67
2023-01-26T06:26:51.458Z,14.30
2023-01-26T06:29:29.380Z,14.67
2023-01-26T06:31:57.783Z,12.50
2023-01-26T06:34:27.689Z,12.57
2023-01-26T06:37:03.821Z,12.30
2023-01-26T06:39:31.763Z,13.20
2023-01-26T06:42:21.618Z,11.90
2023-01-26T06:44:52.203Z,11.80
2023-01-26T06:47:24.795Z,10.53
2023-01-26T06:49:54.157Z,10.63
2023-01-26T06:52:32.176Z,9.70
2023-01-26T06:55:01.415Z,10.43
2023-01-26T06:57:31.981Z,10.97
2023-01-26T07:00:00.362Z,10.60
2023-01-26T07:02:32.967Z,10.20
2023-01-26T07:05:01.347Z,9.33
2023-01-26T07:07:40.533Z,11.60
2023-01-26T07:10:13.207Z,10.33
2023-01-26T07:12:44.390Z,9.63
2023-01-26T07:15:15.190Z,10.37
2023-01-26T07:17:44.323Z,9.03
2023-01-26T07:20:16.019Z,9.97
2023-01-26T07:22:48.020Z,8.07
2023-01-26T07:25:17.857Z,8.77
2023-01-26T07:27:49.073Z,8.47
2023-01-26T07:30:23.528Z,10.03
2023-01-26T07:32:53.214Z,8.10
2023-01-26T07:35:21.534Z,7.47
2023-01-26T07:38:19.873Z,8.57
2023-01-26T07:40:50.315Z,6.00
2023-01-26T07:43:18.881Z,7.93
2023-01-26T07:45:50.327Z,6.43
2023-01-26T07:48:19.206Z,7.70
2023-01-26T07:50:49.707Z,8.33
2023-01-26T07:53:23.066Z,7.67
2023-01-26T07:55:56.560Z,7.27
2023-01-26T07:58:27.329Z,7.57
2023-01-26T08:01:01.372Z,7.80
2023-01-26T08:03:37.223Z,6.80
2023-01-26T08:06:08.311Z,6.80
2023-01-26T08:08:41.237Z,7.57
2023-01-26T08:11:12.944Z,7.70
2023-01-26T08:13:41.471Z,9.27
2023-01-26T08:16:12.405Z,7.63
2023-01-26T08:18:46.178Z,9.83
2023-01-26T08:21:28.599Z,10.03
2023-01-26T08:24:04.953Z,10.17
2023-01-26T08:26:33.931Z,10.83
2023-01-26T08:29:06.926Z,10.10
2023-01-26T08:31:39.201Z,10.23
2023-01-26T08:34:07.792Z,11.70
2023-01-26T08:36:36.523Z,9.80
2023-01-26T08:39:14.340Z,10.10
2023-01-26T08:41:51.291Z,10.47
2023-01-26T08:44:19.740Z,10.13
2023-01-26T08:46:49.211Z,11.20
2023-01-26T08:49:18.132Z,9.83
2023-01-26T08:51:47.798Z,9.23
2023-01-26T08:54:18.894Z,9.63
2023-01-26T08:56:49.158Z,11.43
2023-01-26T08:59:18.430Z,10.40
2023-01-26T09:01:51.358Z,10.40
2023-01-26T09:04:22.373Z,9.53
2023-01-26T09:06:58.003Z,13.50
2023-01-26T09:09:27.968Z,10.97
2023-01-26T09:11:57.435Z,15.20
2023-01-26T09:14:26.011Z,14.37
2023-01-26T09:16:55.037Z,12.97
2023-01-26T09:19:35.800Z,11.70
2023-01-26T09:22:07.479Z,12.53
2023-01-26T09:24:38.138Z,10.53
2023-01-26T09:27:10.353Z,11.23
2023-01-26T09:29:45.106Z,11.80
2023-01-26T09:32:14.025Z,12.30
2023-01-26T09:34:46.071Z,11.87
2023-01-26T09:37:15.650Z,11.67
2023-01-26T09:39:46.190Z,10.90
2023-01-26T09:42:35.636Z,10.87
2023-01-26T09:45:20.210Z,11.20
2023-01-26T09:48:03.460Z,9.57
2023-01-26T09:50:36.225Z,11.10
2023-01-26T09:53:15.215Z,13.10
2023-01-26T09:55:54.464Z,11.73
2023-01-26T09:58:36.502Z,16.70
2023-01-26T10:01:06.555Z,11.40
2023-01-26T10:03:41.741Z,10.87
2023-01-26T10:06:22.597Z,11.60
2023-01-26T10:08:53.987Z,11.10
2023-01-26T10:11:47.235Z,12.00
2023-01-26T10:14:20.483Z,18.20
2023-01-26T10:16:53.025Z,12.57
2023-01-26T10:19:35.578Z,17.73
2023-01-26T10:22:12.861Z,11.87
2023-01-26T10:24:44.050Z,12.27
2023-01-26T10:27:28.138Z,11.77
2023-01-26T10:29:59.591Z,12.93
2023-01-26T10:32:30.875Z,10.63
2023-01-26T10:35:05.161Z,12.40
2023-01-26T10:37:39.992Z,11.43
2023-01-26T10:40:12.795Z,27.83
2023-01-26T10:42:57.402Z,10.70
2023-01-26T10:45:34.069Z,9.90
2023-01-26T10:48:06.804Z,16.47
2023-01-26T10:50:37.027Z,13.67
2023-01-26T10:53:08.678Z,15.17
2023-01-26T10:55:42.650Z,12.27
2023-01-26T10:58:55.540Z,14.93
2023-01-26T11:01:30.395Z,11.10
2023-01-26T11:04:05.945Z,13.87
2023-01-26T11:06:36.803Z,12.53
2023-01-26T11:09:18.340Z,11.17
2023-01-26T11:12:04.545Z,11.50
2023-01-26T11:14:35.681Z,18.23
2023-01-26T11:17:17.669Z,14.53
2023-01-26T11:20:11.657Z,17.17
2023-01-26T11:22:52.448Z,13.43
2023-01-26T11:25:28.951Z,12.80
2023-01-26T11:28:15.902Z,13.83
2023-01-26T11:30:59.780Z,10.77
2023-01-26T11:33:43.849Z,11.33
2023-01-26T11:36:30.158Z,10.07
2023-01-26T11:39:13.748Z,12.07
2023-01-26T11:41:54.481Z,11.77
2023-01-26T11:44:44.204Z,12.07
2023-01-26T11:47:29.289Z,12.37
2023-01-26T11:50:23.575Z,13.10
2023-01-26T11:53:02.532Z,17.77
2023-01-26T11:55:55.148Z,14.00
2023-01-26T11:58:39.048Z,13.27
2023-01-26T12:01:13.093Z,13.57
2023-01-26T12:03:47.504Z,19.07
2023-01-26T12:06:29.577Z,11.97
2023-01-26T12:09:02.960Z,17.43
2023-01-26T12:11:39.448Z,18.40
2023-01-26T12:14:17.662Z,12.27
2023-01-26T12:17:15.656Z,12.93
2023-01-26T12:19:56.096Z,15.37
2023-01-26T12:22:34.224Z,17.90
2023-01-26T12:25:19.689Z,14.10
2023-01-26T12:28:01.550Z,18.03
2023-01-26T12:30:42.053Z,14.70
2023-01-26T12:33:15.650Z,13.03
2023-01-26T12:36:09.701Z,17.30
2023-01-26T12:39:12.571Z,18.90
2023-01-26T12:42:02.746Z,18.87
2023-01-26T12:44:38.507Z,18.00
2023-01-26T12:47:15.546Z,21.83
2023-01-26T12:49:53.387Z,17.57
2023-01-26T12:52:28.377Z,17.33
2023-01-26T12:55:04.382Z,17.57
2023-01-26T12:57:41.227Z,15.70
2023-01-26T13:00:30.067Z,13.33
2023-01-26T13:03:03.723Z,14.07
2023-01-26T13:05:39.519Z,15.07
2023-01-26T13:09:01.250Z,19.60
2023-01-26T13:11:50.867Z,12.23
2023-01-26T13:14:42.080Z,16.90
2023-01-26T13:17:53.025Z,18.07
2023-01-26T13:20:47.105Z,19.37
2023-01-26T13:23:53.743Z,18.93
2023-01-26T13:26:44.218Z,14.07
2023-01-26T13:29:35.634Z,16.27
2023-01-26T13:32:58.252Z,17.47
2023-01-26T13:35:35.731Z,17.93
2023-01-26T13:38:16.199Z,14.57
2023-01-26T13:40:55.156Z,13.90
2023-01-26T13:43:33.883Z,15.57
2023-01-26T13:46:14.206Z,14.87
2023-01-26T13:48:46.744Z,21.37
2023-01-26T13:51:19.997Z,16.17
2023-01-26T13:54:06.316Z,14.03
2023-01-26T13:56:37.540Z,17.77
2023-01-26T13:59:12.926Z,15.23
2023-01-26T14:01:49.831Z,15.33
2023-01-26T14:04:24.801Z,14.57
2023-01-26T14:06:57.745Z,16.37
2023-01-26T14:09:30.467Z,17.87
2023-01-26T14:12:03.987Z,16.03
2023-01-26T14:14:37.047Z,16.10
2023-01-26T14:17:29.413Z,16.97
2023-01-26T14:20:00.338Z,15.00
2023-01-26T14:22:52.510Z,16.80
2023-01-26T14:25:22.586Z,16.73
2023-01-26T14:27:54.212Z,16.73
2023-01-26T14:30:29.943Z,13.27
2023-01-26T14:33:09.561Z,16.27
2023-01-26T14:35:38.129Z,15.30
2023-01-26T14:38:16.703Z,16.50
2023-01-26T14:40:53.110Z,19.10
2023-01-26T14:43:23.435Z,17.53
2023-01-26T14:45:59.506Z,16.67
2023-01-26T14:48:36.300Z,20.20
2023-01-26T14:51:10.143Z,19.00
2023-01-26T14:53:40.791Z,19.13
2023-01-26T15:04:25.999Z,15.27
2023-01-26T15:06:54.433Z,19.90
2023-01-26T15:09:28.925Z,20.67
2023-01-26T15:12:19.312Z,21.83
2023-01-26T15:14:51.251Z,20.10
2023-01-26T15:17:39.397Z,25.40
2023-01-26T15:20:42.221Z,25.17
2023-01-26T15:23:27.773Z,24.63
2023-01-26T15:25:59.513Z,23.43
2023-01-26T15:28:36.478Z,22.27
2023-01-26T15:31:05.940Z,27.07
2023-01-26T15:33:45.340Z,23.13
2023-01-26T15:36:37.489Z,21.00
2023-01-26T15:39:13.942Z,24.23
2023-01-26T15:41:43.056Z,23.00
2023-01-26T15:44:19.829Z,19.57
2023-01-26T15:46:47.731Z,20.80
2023-01-26T15:49:23.674Z,20.27
2023-01-26T15:51:55.697Z,19.57
2023-01-26T15:54:26.466Z,17.83
2023-01-26T15:56:57.421Z,18.73
2023-01-26T15:59:26.380Z,19.70
2023-01-26T16:01:57.584Z,21.47
2023-01-26T16:04:28.938Z,17.97
2023-01-26T16:06:59.126Z,24.40
2023-01-26T16:09:33.859Z,20.47
2023-01-26T16:12:02.703Z,20.60
2023-01-26T16:14:32.869Z,21.87
2023-01-26T16:17:01.531Z,20.17
2023-01-26T16:19:35.555Z,21.50
2023-01-26T16:22:04.003Z,23.60
2023-01-26T16:24:34.260Z,20.93
2023-01-26T16:27:05.243Z,21.37
2023-01-26T16:29:36.852Z,23.10
2023-01-26T16:32:31.412Z,25.47
2023-01-26T16:35:00.222Z,22.97
2023-01-26T16:37:29.478Z,23.43
2023-01-26T16:40:00.891Z,29.37
2023-01-26T16:42:32.436Z,23.37
2023-01-26T16:45:01.493Z,20.00
2023-01-26T16:47:37.315Z,22.90
2023-01-26T16:50:06.211Z,29.50
2023-01-26T16:52:39.507Z,24.70
2023-01-26T16:55:17.666Z,23.80
2023-01-26T16:57:50.338Z,22.97
2023-01-26T17:00:21.933Z,25.73
2023-01-26T17:02:54.510Z,26.70
2023-01-26T17:05:26.677Z,24.17
2023-01-26T17:08:00.617Z,25.60
2023-01-26T17:10:35.812Z,26.73
2023-01-26T17:13:07.101Z,22.67
2023-01-26T17:15:35.328Z,25.97
2023-01-26T17:18:06.652Z,24.27
2023-01-26T17:20:35.352Z,27.30
2023-01-26T17:23:05.775Z,26.40
2023-01-26T17:25:36.132Z,25.20
2023-01-26T17:28:11.416Z,25.77
2023-01-26T17:30:41.163Z,25.47
2023-01-26T17:33:11.654Z,27.17
2023-01-26T17:35:40.839Z,26.73
2023-01-26T17:38:09.544Z,25.33
2023-01-26T17:40:41.353Z,24.67
2023-01-26T17:43:13.638Z,26.23
2023-01-26T17:45:45.025Z,27.63
2023-01-26T17:48:16.260Z,25.17
2023-01-26T17:50:51.885Z,27.17
2023-01-26T17:53:23.149Z,26.03
2023-01-26T17:55:55.366Z,22.47
2023-01-26T17:58:25.024Z,25.23
2023-01-26T18:00:53.281Z,27.47
2023-01-26T18:03:27.240Z,26.50
2023-01-26T18:05:58.260Z,24.77
2023-01-26T18:08:27.349Z,28.40
2023-01-26T18:11:03.970Z,28.30
2023-01-26T18:13:39.755Z,31.23
2023-01-26T18:16:09.108Z,30.57
2023-01-26T18:18:38.241Z,27.33
2023-01-26T18:21:17.871Z,33.43
2023-01-26T18:23:48.498Z,29.53
2023-01-26T18:26:22.274Z,29.70
2023-01-26T18:28:57.943Z,29.73
2023-01-26T18:31:30.872Z,31.97
2023-01-26T18:34:02.444Z,28.80
2023-01-26T18:36:31.263Z,33.97
2023-01-26T18:39:02.158Z,26.10
2023-01-26T18:41:33.035Z,28.57
2023-01-26T18:44:03.990Z,31.90
2023-01-26T18:46:33.695Z,29.87
2023-01-26T18:49:04.860Z,30.37
2023-01-26T18:51:37.891Z,31.73
2023-01-26T18:54:12.226Z,36.97
2023-01-26T18:56:49.358Z,30.57
2023-01-26T18:59:18.248Z,37.73
2023-01-26T19:01:49.084Z,36.33
2023-01-26T19:04:21.051Z,35.97
2023-01-26T19:06:50.358Z,34.57
2023-01-26T19:09:20.972Z,33.13
2023-01-26T19:11:53.308Z,30.80
2023-01-26T19:14:22.591Z,32.93
2023-01-26T19:16:57.512Z,30.33
2023-01-26T19:19:27.144Z,29.17
2023-01-26T19:21:56.312Z,32.90
2023-01-26T19:24:27.482Z,29.60
2023-01-26T19:26:57.807Z,27.40
2023-01-26T19:29:34.539Z,33.67
2023-01-26T19:32:03.625Z,34.97
2023-01-26T19:34:37.817Z,35.13
2023-01-26T19:37:06.901Z,31.93
2023-01-26T19:39:39.411Z,31.73
2023-01-26T19:42:10.046Z,31.07
2023-01-26T19:44:39.292Z,33.10
2023-01-26T19:47:09.271Z,31.37
2023-01-26T19:49:38.042Z,32.93
2023-01-26T19:52:11.686Z,38.77
2023-01-26T19:54:43.573Z,34.43
2023-01-26T19:57:14.559Z,33.93
2023-01-26T19:59:55.889Z,36.27
2023-01-26T20:02:28.914Z,32.33
2023-01-26T20:04:58.407Z,30.70
2023-01-26T20:07:26.622Z,32.83
2023-01-26T20:09:58.734Z,31.20
2023-01-26T20:12:28.528Z,35.10
2023-01-26T20:15:01.609Z,32.27
2023-01-26T20:17:30.329Z,32.20
2023-01-26T20:19:59.911Z,29.97
2023-01-26T20:22:33.643Z,32.40
2023-01-26T20:25:02.786Z,28.10
2023-01-26T20:27:36.337Z,25.50
2023-01-26T20:30:06.710Z,29.50
2023-01-26T20:32:43.024Z,27.13
2023-01-26T20:35:16.376Z,28.00
2023-01-26T20:37:45.156Z,28.93
2023-01-26T20:40:14.919Z,28.43
2023-01-26T20:42:45.949Z,31.83
2023-01-26T20:45:15.338Z,30.80
2023-01-26T20:47:45.528Z,30.70
2023-01-26T20:50:22.173Z,29.27
2023-01-26T20:52:55.303Z,27.73
2023-01-26T20:55:24.330Z,32.13
2023-01-26T20:57:53.684Z,30.53
2023-01-26T21:00:24.223Z,30.20
2023-01-26T21:02:54.341Z,31.33
2023-01-26T21:05:25.129Z,30.03
2023-01-26T21:07:54.142Z,31.10
2023-01-26T21:10:24.973Z,25.83
2023-01-26T21:12:54.394Z,31.80
2023-01-26T21:15:22.300Z,23.67
2023-01-26T21:17:53.356Z,32.50
2023-01-26T21:20:22.251Z,26.70
2023-01-26T21:22:50.560Z,28.37
2023-01-26T21:25:18.691Z,22.07
2023-01-26T21:27:55.313Z,23.97
2023-01-26T21:30:30.181Z,25.27
2023-01-26T21:33:23.542Z,25.17
2023-01-26T21:35:58.268Z,23.30
2023-01-26T21:38:34.921Z,23.27
2023-01-26T21:41:05.709Z,26.23
2023-01-26T21:43:37.495Z,23.07
2023-01-26T21:46:08.466Z,23.63
2023-01-26T21:48:39.249Z,25.43
2023-01-26T21:51:30.413Z,24.57
2023-01-26T21:54:04.621Z,23.53
2023-01-26T21:56:34.743Z,24.00
2023-01-26T21:59:08.388Z,22.17
2023-01-26T22:01:55.173Z,23.90
2023-01-26T22:04:26.467Z,23.60
2023-01-26T22:06:56.101Z,23.97
2023-01-26T22:09:27.061Z,27.80
2023-01-26T22:11:55.986Z,26.53
2023-01-26T22:14:29.125Z,25.40
2023-01-26T22:17:00.517Z,27.17
2023-01-26T22:19:30.713Z,23.87
2023-01-26T22:21:59.076Z,26.43
2023-01-26T22:24:28.283Z,26.03
2023-01-26T22:26:59.697Z,24.87
2023-01-26T22:29:29.512Z,24.73
2023-01-26T22:32:05.545Z,28.20
2023-01-26T22:34:37.861Z,24.87
2023-01-26T22:37:06.662Z,30.87
2023-01-26T22:39:39.861Z,23.63
2023-01-26T22:42:10.964Z,26.17
2023-01-26T22:44:39.787Z,24.00
2023-01-26T22:47:10.862Z,23.10
2023-01-26T22:49:39.141Z,26.37
2023-01-26T22:52:21.665Z,24.13
2023-01-26T22:54:52.936Z,34.90
2023-01-26T22:57:22.605Z,23.37
2023-01-26T22:59:52.716Z,25.73
2023-01-26T23:02:22.552Z,24.77
2023-01-26T23:04:50.822Z,28.20
2023-01-26T23:07:20.426Z,29.23
2023-01-26T23:09:50.978Z,24.83
2023-01-26T23:12:19.948Z,25.77
2023-01-26T23:14:48.615Z,27.93
2023-01-26T23:17:18.109Z,29.13
2023-01-26T23:19:49.702Z,27.97
2023-01-26T23:22:21.662Z,28.07
2023-01-26T23:25:21.472Z,29.00
2023-01-26T23:27:50.698Z,23.77
2023-01-26T23:30:18.983Z,26.70
2023-01-26T23:32:49.478Z,25.23
2023-01-26T23:35:20.840Z,25.17
2023-01-26T23:37:51.539Z,25.17
2023-01-26T23:40:20.700Z,24.27
2023-01-26T23:43:14.299Z,24.17
2023-01-26T23:45:45.535Z,29.00
2023-01-26T23:48:17.575Z,28.67
2023-01-26T23:50:55.349Z,24.13
2023-01-26T23:53:25.536Z,23.77
2023-01-26T23:55:55.354Z,28.03
2023-01-26T23:58:28.170Z,27.37
